createdAt,value
2022-09-10T00:01:41.539Z,18.20
2022-09-10T00:04:15.317Z,18.20
2022-09-10T00:06:45.364Z,18.10
2022-09-10T00:09:15.956Z,18.10
2022-09-10T00:11:46.513Z,18.00
2022-09-10T00:14:22.648Z,18.10
2022-09-10T00:16:52.338Z,18.00
2022-09-10T00:19:22.267Z,18.00
2022-09-10T00:21:51.541Z,18.00
2022-09-10T00:24:22.627Z,18.00
2022-09-10T00:26:51.872Z,18.00
2022-09-10T00:29:21.136Z,18.00
2022-09-10T00:31:50.428Z,18.00
2022-09-10T00:34:19.627Z,18.00
2022-09-10T00:36:48.908Z,18.00
2022-09-10T00:39:18.791Z,18.00
2022-09-10T00:41:49.105Z,18.00
2022-09-10T00:44:39.853Z,17.90
2022-09-10T00:47:24.809Z,17.90
2022-09-10T00:50:06.269Z,17.90
2022-09-10T00:52:39.605Z,17.90
2022-09-10T00:55:12.586Z,17.90
2022-09-10T00:57:46.215Z,17.90
2022-09-10T01:00:16.450Z,17.90
2022-09-10T01:02:45.770Z,17.90
2022-09-10T01:05:17.567Z,17.90
2022-09-10T01:07:48.205Z,17.90
2022-09-10T01:10:28.918Z,17.90
2022-09-10T01:13:34.310Z,17.90
2022-09-10T01:16:48.547Z,17.90
2022-09-10T01:19:50.564Z,17.90
2022-09-10T01:22:47.573Z,17.80
2022-09-10T01:25:31.834Z,17.80
2022-09-10T01:28:17.489Z,17.80
2022-09-10T01:30:56.781Z,17.80
2022-09-10T01:33:52.770Z,17.80
2022-09-10T01:36:28.546Z,17.80
2022-09-10T01:38:58.064Z,17.70
2022-09-10T01:41:28.803Z,17.70
2022-09-10T01:43:58.399Z,17.80
2022-09-10T01:46:55.068Z,17.70
2022-09-10T01:49:43.980Z,17.70
2022-09-10T01:52:37.252Z,17.70
2022-09-10T01:55:14.964Z,17.60
2022-09-10T01:58:02.129Z,17.70
2022-09-10T02:00:50.015Z,17.60
2022-09-10T02:03:23.254Z,17.60
2022-09-10T02:05:56.457Z,17.60
2022-09-10T02:08:35.238Z,17.60
2022-09-10T02:11:09.275Z,17.70
2022-09-10T02:13:45.150Z,17.60
2022-09-10T02:16:39.222Z,17.70
2022-09-10T02:19:09.283Z,17.60
2022-09-10T02:21:38.786Z,17.50
2022-09-10T02:24:12.831Z,17.40
2022-09-10T02:26:44.937Z,17.30
2022-09-10T02:29:16.704Z,17.20
2022-09-10T02:31:47.459Z,17.20
2022-09-10T02:34:17.165Z,17.20
2022-09-10T02:36:49.593Z,17.20
2022-09-10T02:39:19.029Z,17.20
2022-09-10T02:41:48.254Z,17.30
2022-09-10T02:44:17.925Z,17.20
2022-09-10T02:46:47.566Z,17.20
2022-09-10T02:49:18.119Z,17.10
2022-09-10T02:51:50.556Z,17.10
2022-09-10T02:54:20.266Z,17.10
2022-09-10T02:56:49.934Z,17.00
2022-09-10T02:59:19.215Z,17.00
2022-09-10T03:01:48.658Z,17.00
2022-09-10T03:04:18.025Z,16.90
2022-09-10T03:06:49.546Z,16.90
2022-09-10T03:09:19.060Z,16.90
2022-09-10T03:11:51.340Z,16.90
2022-09-10T03:14:23.667Z,16.90
2022-09-10T03:16:52.967Z,16.90
2022-09-10T03:19:22.281Z,16.90
2022-09-10T03:21:53.075Z,16.90
2022-09-10T03:24:22.509Z,16.90
2022-09-10T03:26:51.753Z,16.80
2022-09-10T03:29:23.228Z,16.80
2022-09-10T03:31:52.637Z,16.80
2022-09-10T03:34:23.402Z,16.80
2022-09-10T03:36:52.779Z,16.70
2022-09-10T03:39:22.040Z,16.80
2022-09-10T03:41:51.360Z,16.70
2022-09-10T03:44:20.557Z,16.70
2022-09-10T03:46:51.317Z,16.70
2022-09-10T03:49:20.992Z,16.70
2022-09-10T03:51:51.624Z,16.70
2022-09-10T03:54:21.522Z,16.70
2022-09-10T03:56:51.169Z,16.60
2022-09-10T03:59:20.961Z,16.60
2022-09-10T04:01:50.806Z,16.60
2022-09-10T04:04:20.091Z,16.50
2022-09-10T04:06:49.583Z,16.50
2022-09-10T04:09:20.055Z,16.50
2022-09-10T04:11:49.322Z,16.50
2022-09-10T04:14:19.580Z,16.50
2022-09-10T04:16:50.134Z,16.50
2022-09-10T04:19:21.134Z,16.40
2022-09-10T04:21:53.019Z,16.40
2022-09-10T04:24:22.492Z,16.40
2022-09-10T04:26:52.308Z,16.30
2022-09-10T04:29:21.605Z,16.30
2022-09-10T04:31:51.370Z,16.30
2022-09-10T04:34:22.832Z,16.30
2022-09-10T04:36:53.676Z,16.30
2022-09-10T04:39:23.666Z,16.40
2022-09-10T04:41:53.033Z,16.40
2022-09-10T04:44:22.862Z,16.40
2022-09-10T04:46:52.053Z,16.40
2022-09-10T04:49:21.479Z,16.50
2022-09-10T04:51:50.802Z,16.50
2022-09-10T04:54:21.207Z,16.50
2022-09-10T04:56:51.275Z,16.50
2022-09-10T04:59:21.325Z,16.50
2022-09-10T05:01:50.782Z,16.50
2022-09-10T05:04:20.536Z,16.60
2022-09-10T05:06:51.251Z,16.70
2022-09-10T05:09:21.254Z,16.70
2022-09-10T05:11:50.537Z,16.80
2022-09-10T05:14:22.920Z,16.90
2022-09-10T05:16:52.471Z,16.90
2022-09-10T05:19:22.173Z,17.00
2022-09-10T05:22:00.846Z,17.10
2022-09-10T05:24:32.016Z,17.20
2022-09-10T05:27:02.091Z,17.40
2022-09-10T05:29:31.311Z,17.60
2022-09-10T05:32:01.172Z,17.70
2022-09-10T05:34:30.459Z,17.80
2022-09-10T05:37:00.295Z,17.90
2022-09-10T05:39:29.544Z,17.90
2022-09-10T05:42:00.612Z,18.00
2022-09-10T05:44:29.913Z,18.10
2022-09-10T05:46:59.755Z,18.10
2022-09-10T05:49:30.520Z,18.10
2022-09-10T05:51:59.753Z,18.10
2022-09-10T05:54:28.973Z,18.10
2022-09-10T05:56:58.831Z,18.00
2022-09-10T05:59:28.050Z,18.00
2022-09-10T06:01:58.191Z,18.10
2022-09-10T06:04:28.061Z,18.30
2022-09-10T06:06:57.709Z,18.50
2022-09-10T06:09:26.936Z,18.50
2022-09-10T06:12:01.497Z,18.60
2022-09-10T06:14:31.800Z,18.60
2022-09-10T06:17:01.883Z,18.70
2022-09-10T06:19:33.225Z,18.70
2022-09-10T06:22:02.541Z,18.80
2022-09-10T06:24:36.661Z,18.90
2022-09-10T06:27:06.963Z,19.10
2022-09-10T06:29:37.368Z,19.20
2022-09-10T06:32:07.267Z,19.10
2022-09-10T06:34:36.575Z,19.20
2022-09-10T06:37:07.814Z,19.10
2022-09-10T06:39:41.066Z,19.10
2022-09-10T06:42:10.455Z,19.20
2022-09-10T06:45:00.220Z,19.30
2022-09-10T06:50:53.463Z,19.30
2022-09-10T06:53:28.692Z,19.20
2022-09-10T06:56:01.397Z,19.30
2022-09-10T06:58:39.249Z,19.30
2022-09-10T07:01:15.795Z,19.40
2022-09-10T07:03:56.935Z,19.60
2022-09-10T07:06:33.712Z,19.70
2022-09-10T07:09:15.506Z,19.90
2022-09-10T07:12:04.841Z,20.10
2022-09-10T07:14:37.438Z,20.20
2022-09-10T07:17:09.802Z,20.30
2022-09-10T07:19:40.359Z,20.30
2022-09-10T07:22:17.182Z,20.40
2022-09-10T07:24:50.331Z,20.40
2022-09-10T07:27:33.268Z,20.30
2022-09-10T07:30:03.052Z,20.30
2022-09-10T07:32:33.685Z,20.40
2022-09-10T07:35:09.963Z,20.50
2022-09-10T07:37:40.193Z,20.70
2022-09-10T07:40:10.629Z,20.80
2022-09-10T07:42:42.033Z,20.90
2022-09-10T07:45:15.771Z,21.00
2022-09-10T07:47:48.066Z,20.90
2022-09-10T07:50:19.154Z,20.80
2022-09-10T07:52:50.814Z,20.70
2022-09-10T07:55:20.556Z,20.80
2022-09-10T07:57:50.081Z,20.80
2022-09-10T08:00:19.676Z,20.70
2022-09-10T08:02:53.599Z,20.70
2022-09-10T08:05:24.528Z,20.60
2022-09-10T08:07:57.209Z,20.70
2022-09-10T08:10:29.057Z,20.80
2022-09-10T08:12:59.527Z,20.90
2022-09-10T08:15:28.829Z,21.10
2022-09-10T08:18:00.833Z,21.20
2022-09-10T08:20:30.187Z,21.30
2022-09-10T08:23:00.782Z,21.50
2022-09-10T08:25:31.050Z,21.60
2022-09-10T08:28:00.930Z,21.60
2022-09-10T08:30:32.235Z,21.60
2022-09-10T08:33:02.223Z,21.70
2022-09-10T08:35:32.273Z,22.00
2022-09-10T08:38:01.532Z,22.60
2022-09-10T08:40:32.672Z,23.20
2022-09-10T08:43:02.723Z,23.50
2022-09-10T08:45:34.803Z,23.30
2022-09-10T08:48:20.706Z,23.30
2022-09-10T08:51:21.161Z,23.20
2022-09-10T08:53:59.869Z,23.20
2022-09-10T08:56:30.293Z,23.40
2022-09-10T08:59:17.210Z,23.60
2022-09-10T09:01:59.396Z,23.80
2022-09-10T09:04:55.439Z,24.10
2022-09-10T09:07:34.951Z,24.10
2022-09-10T09:10:17.584Z,23.90
2022-09-10T09:13:20.115Z,23.70
2022-09-10T09:16:35.519Z,23.60
2022-09-10T09:19:26.800Z,23.70
2022-09-10T09:22:15.848Z,24.00
2022-09-10T09:25:20.133Z,24.10
2022-09-10T09:27:57.926Z,24.10
2022-09-10T09:30:49.217Z,24.20
2022-09-10T09:33:23.754Z,24.40
2022-09-10T09:36:03.157Z,25.00
2022-09-10T09:38:41.342Z,25.50
2022-09-10T09:41:59.287Z,25.50
2022-09-10T09:44:56.990Z,25.80
2022-09-10T09:47:27.519Z,25.70
2022-09-10T09:49:58.221Z,25.10
2022-09-10T09:52:31.949Z,25.00
2022-09-10T09:55:23.075Z,25.30
2022-09-10T09:58:21.260Z,25.50
2022-09-10T10:01:09.768Z,26.00
2022-09-10T10:04:01.784Z,26.40
2022-09-10T10:06:33.312Z,26.30
2022-09-10T10:09:20.323Z,25.70
2022-09-10T10:11:59.436Z,25.20
2022-09-10T10:14:31.595Z,25.20
2022-09-10T10:17:01.798Z,25.20
2022-09-10T10:19:40.255Z,25.30
2022-09-10T10:22:18.047Z,25.40
2022-09-10T10:24:51.563Z,25.90
2022-09-10T10:27:36.737Z,25.70
2022-09-10T10:30:24.027Z,25.90
2022-09-10T10:33:03.032Z,25.40
2022-09-10T10:35:44.415Z,24.90
2022-09-10T10:38:39.893Z,24.50
2022-09-10T10:41:46.991Z,24.30
2022-09-10T10:44:38.625Z,24.00
2022-09-10T10:47:20.093Z,24.10
2022-09-10T10:50:42.805Z,24.20
2022-09-10T10:54:04.308Z,24.40
2022-09-10T10:56:42.612Z,24.90
2022-09-10T10:59:42.434Z,25.40
2022-09-10T11:02:20.731Z,25.80
2022-09-10T11:04:53.720Z,25.80
2022-09-10T11:07:29.068Z,26.30
2022-09-10T11:10:11.518Z,26.30
2022-09-10T11:13:09.369Z,26.30
2022-09-10T11:15:50.033Z,25.90
2022-09-10T11:18:33.467Z,25.50
2022-09-10T11:21:21.545Z,25.40
2022-09-10T11:24:17.526Z,25.30
2022-09-10T11:27:08.405Z,25.50
2022-09-10T11:29:46.070Z,25.90
2022-09-10T11:32:42.836Z,26.00
2022-09-10T11:35:22.079Z,25.70
2022-09-10T11:38:23.284Z,25.40
2022-09-10T11:41:22.337Z,25.10
2022-09-10T11:44:36.611Z,25.00
2022-09-10T11:47:28.004Z,24.80
2022-09-10T11:50:11.136Z,24.70
2022-09-10T11:52:40.532Z,25.00
2022-09-10T11:55:17.473Z,25.50
2022-09-10T11:57:58.480Z,26.10
2022-09-10T12:00:39.097Z,26.20
2022-09-10T12:03:35.373Z,26.20
2022-09-10T12:06:26.706Z,26.00
2022-09-10T12:09:10.636Z,25.70
2022-09-10T12:12:18.158Z,25.60
2022-09-10T12:14:47.847Z,25.50
2022-09-10T12:17:27.268Z,25.40
2022-09-10T12:20:00.471Z,25.60
2022-09-10T12:22:36.877Z,25.90
2022-09-10T12:25:22.454Z,26.20
2022-09-10T12:27:57.220Z,26.10
2022-09-10T12:30:35.089Z,25.80
2022-09-10T12:33:13.216Z,25.60
2022-09-10T12:35:51.161Z,25.40
2022-09-10T12:38:54.173Z,25.40
2022-09-10T12:41:23.327Z,25.30
2022-09-10T12:44:01.274Z,25.40
2022-09-10T12:46:32.332Z,25.40
2022-09-10T12:49:01.541Z,25.60
2022-09-10T12:51:51.796Z,25.70
2022-09-10T12:54:48.879Z,25.70
2022-09-10T12:57:59.216Z,25.90
2022-09-10T13:00:58.149Z,25.90
2022-09-10T13:03:30.452Z,26.20
2022-09-10T13:06:04.401Z,26.40
2022-09-10T13:08:42.078Z,26.70
2022-09-10T13:11:17.641Z,27.30
2022-09-10T13:14:03.794Z,27.70
2022-09-10T13:16:33.314Z,27.80
2022-09-10T13:19:14.654Z,27.20
2022-09-10T13:21:43.802Z,27.20
2022-09-10T13:24:35.611Z,29.20
2022-09-10T13:27:33.974Z,32.90
2022-09-10T13:30:23.456Z,35.10
2022-09-10T13:33:07.600Z,33.30
2022-09-10T13:36:25.163Z,34.90
2022-09-10T13:39:15.316Z,33.80
2022-09-10T13:42:11.717Z,31.50
2022-09-10T13:45:26.728Z,32.20
2022-09-10T13:48:17.501Z,32.30
2022-09-10T13:51:01.613Z,31.70
2022-09-10T13:53:34.338Z,30.80
2022-09-10T13:56:22.769Z,30.50
2022-09-10T13:59:00.936Z,29.50
2022-09-10T14:01:53.785Z,28.60
2022-09-10T14:04:44.927Z,27.90
2022-09-10T14:07:22.837Z,27.60
2022-09-10T14:09:59.282Z,27.40
2022-09-10T14:12:34.000Z,27.30
2022-09-10T14:15:06.776Z,26.90
2022-09-10T14:17:45.155Z,26.50
2022-09-10T14:20:18.733Z,26.00
2022-09-10T14:22:49.058Z,25.70
2022-09-10T14:25:40.162Z,25.60
2022-09-10T14:28:28.147Z,25.30
2022-09-10T14:31:26.655Z,25.00
2022-09-10T14:34:36.171Z,24.90
2022-09-10T14:37:44.378Z,24.80
2022-09-10T14:40:22.246Z,24.80
2022-09-10T14:42:51.459Z,24.70
2022-09-10T14:45:41.958Z,24.80
2022-09-10T14:48:39.096Z,24.70
2022-09-10T14:51:25.627Z,24.90
2022-09-10T14:53:57.561Z,25.10
2022-09-10T14:56:40.754Z,25.10
2022-09-10T14:59:55.289Z,25.00
2022-09-10T15:02:28.630Z,25.10
2022-09-10T15:04:57.951Z,25.00
2022-09-10T15:07:27.898Z,25.20
2022-09-10T15:09:57.173Z,25.00
2022-09-10T15:12:31.985Z,24.80
2022-09-10T15:15:01.278Z,24.50
2022-09-10T15:17:31.783Z,24.30
2022-09-10T15:20:03.583Z,24.00
2022-09-10T15:22:33.156Z,23.80
2022-09-10T15:25:11.005Z,23.60
2022-09-10T15:27:40.507Z,23.40
2022-09-10T15:30:10.385Z,23.20
2022-09-10T15:32:39.576Z,23.00
2022-09-10T15:35:09.639Z,22.90
2022-09-10T15:37:38.884Z,22.70
2022-09-10T15:40:10.286Z,22.50
2022-09-10T15:42:39.925Z,22.40
2022-09-10T15:45:09.761Z,22.30
2022-09-10T15:47:41.937Z,22.20
2022-09-10T15:50:11.998Z,22.00
2022-09-10T15:52:41.184Z,21.90
2022-09-10T15:55:12.387Z,21.80
2022-09-10T15:57:41.694Z,21.80
2022-09-10T16:00:12.367Z,21.70
2022-09-10T16:02:42.259Z,21.60
2022-09-10T16:05:12.290Z,21.50
2022-09-10T16:07:44.532Z,21.20
2022-09-10T16:10:15.403Z,20.90
2022-09-10T16:12:44.636Z,20.60
2022-09-10T16:15:14.002Z,19.80
2022-09-10T16:17:43.204Z,18.40
2022-09-10T16:20:12.581Z,17.50
2022-09-10T16:22:41.862Z,17.00
2022-09-10T16:25:12.120Z,17.00
2022-09-10T16:27:43.371Z,17.20
2022-09-10T16:30:13.879Z,17.60
2022-09-10T16:32:43.058Z,17.90
2022-09-10T16:35:12.230Z,18.00
2022-09-10T16:37:41.513Z,18.00
2022-09-10T16:40:11.981Z,17.90
2022-09-10T16:42:41.179Z,17.70
2022-09-10T16:45:10.582Z,17.70
2022-09-10T16:47:39.828Z,17.70
2022-09-10T16:50:09.790Z,17.70
2022-09-10T16:52:39.268Z,17.60
2022-09-10T16:55:08.614Z,17.50
2022-09-10T16:57:37.857Z,17.40
2022-09-10T17:00:10.546Z,17.30
2022-09-10T17:02:40.954Z,17.20
2022-09-10T17:05:11.252Z,17.10
2022-09-10T17:07:40.448Z,17.00
2022-09-10T17:10:10.159Z,16.90
2022-09-10T17:12:39.401Z,16.80
2022-09-10T17:15:09.108Z,16.80
2022-09-10T17:17:38.448Z,16.70
2022-09-10T17:20:08.506Z,16.70
2022-09-10T17:22:37.894Z,16.70
2022-09-10T17:25:07.710Z,16.70
2022-09-10T17:27:36.946Z,16.70
2022-09-10T17:30:07.334Z,16.70
2022-09-10T17:32:36.530Z,16.70
2022-09-10T17:35:06.574Z,16.80
2022-09-10T17:37:36.799Z,16.70
2022-09-10T17:40:07.501Z,16.80
2022-09-10T17:42:36.780Z,16.80
2022-09-10T17:45:07.473Z,16.80
2022-09-10T17:47:36.669Z,16.80
2022-09-10T17:50:06.588Z,16.80
2022-09-10T17:52:35.836Z,16.80
2022-09-10T17:55:05.833Z,16.80
2022-09-10T17:57:35.729Z,16.80
2022-09-10T18:00:05.516Z,16.80
2022-09-10T18:02:34.739Z,16.80
2022-09-10T18:05:05.655Z,16.80
2022-09-10T18:07:34.873Z,16.70
2022-09-10T18:10:05.230Z,16.80
2022-09-10T18:12:34.431Z,16.80
2022-09-10T18:15:04.067Z,16.80
2022-09-10T18:17:33.360Z,16.80
2022-09-10T18:20:02.747Z,16.80
2022-09-10T18:22:33.100Z,16.80
2022-09-10T18:25:02.487Z,16.80
2022-09-10T18:27:31.819Z,16.70
2022-09-10T18:30:01.335Z,16.60
2022-09-10T18:32:30.702Z,16.50
2022-09-10T18:35:00.013Z,16.50
2022-09-10T18:37:30.022Z,16.50
2022-09-10T18:39:59.550Z,16.50
2022-09-10T18:42:28.826Z,16.50
2022-09-10T18:44:58.195Z,16.50
2022-09-10T18:47:44.048Z,16.60
2022-09-10T18:50:14.188Z,16.60
2022-09-10T18:52:43.459Z,16.50
2022-09-10T18:55:12.644Z,16.50
2022-09-10T18:57:42.093Z,16.50
2022-09-10T19:00:12.427Z,16.50
2022-09-10T19:02:41.685Z,16.60
2022-09-10T19:05:12.179Z,16.60
2022-09-10T19:07:41.840Z,16.60
2022-09-10T19:10:11.013Z,16.70
2022-09-10T19:12:40.208Z,16.70
2022-09-10T19:15:10.197Z,16.70
2022-09-10T19:17:39.763Z,16.70
2022-09-10T19:20:09.777Z,16.70
2022-09-10T19:22:39.174Z,16.70
2022-09-10T19:25:09.323Z,16.60
2022-09-10T19:27:39.494Z,16.50
2022-09-10T19:30:09.660Z,16.40
2022-09-10T19:32:38.854Z,16.40
2022-09-10T19:35:10.362Z,16.30
2022-09-10T19:37:39.594Z,16.20
2022-09-10T19:40:12.000Z,16.20
2022-09-10T19:42:41.269Z,16.10
2022-09-10T19:45:10.640Z,16.10
2022-09-10T19:47:40.292Z,16.00
2022-09-10T19:50:10.332Z,16.00
2022-09-10T19:52:40.944Z,15.90
2022-09-10T19:55:12.718Z,15.80
2022-09-10T19:57:41.952Z,15.80
2022-09-10T20:00:30.061Z,15.70
2022-09-10T20:03:02.169Z,15.70
2022-09-10T20:05:34.183Z,15.60
2022-09-10T20:08:04.997Z,15.60
2022-09-10T20:10:34.266Z,15.50
2022-09-10T20:13:04.778Z,15.40
2022-09-10T20:15:41.267Z,15.30
2022-09-10T20:18:14.126Z,15.20
2022-09-10T20:20:43.318Z,15.10
2022-09-10T20:23:12.848Z,15.10
2022-09-10T20:25:43.279Z,15.00
2022-09-10T20:28:13.301Z,15.00
2022-09-10T20:30:43.861Z,14.90
2022-09-10T20:33:13.105Z,14.80
2022-09-10T20:35:42.917Z,14.80
2022-09-10T20:38:12.880Z,14.90
2022-09-10T20:40:42.584Z,14.90
2022-09-10T20:43:12.425Z,14.90
2022-09-10T20:45:44.742Z,14.90
2022-09-10T20:48:14.307Z,14.90
2022-09-10T20:50:55.379Z,14.90
2022-09-10T20:53:26.606Z,14.80
2022-09-10T20:56:11.542Z,14.80
2022-09-10T20:58:41.782Z,14.80
2022-09-10T21:01:19.035Z,14.70
2022-09-10T21:03:49.603Z,14.70
2022-09-10T21:06:23.495Z,14.60
2022-09-10T21:08:56.001Z,14.50
2022-09-10T21:11:29.664Z,14.50
2022-09-10T21:14:02.203Z,14.50
2022-09-10T21:16:43.508Z,14.50
2022-09-10T21:19:16.313Z,14.50
2022-09-10T21:21:48.904Z,14.50
2022-09-10T21:24:22.702Z,14.50
2022-09-10T21:26:53.673Z,14.50
2022-09-10T21:29:23.142Z,14.50
2022-09-10T21:31:56.198Z,14.50
2022-09-10T21:34:25.495Z,14.40
2022-09-10T21:36:55.262Z,14.50
2022-09-10T21:39:24.590Z,14.50
2022-09-10T21:41:53.811Z,14.50
2022-09-10T21:44:25.059Z,14.50
2022-09-10T21:46:54.379Z,14.40
2022-09-10T21:49:23.720Z,14.30
2022-09-10T21:51:52.892Z,14.30
2022-09-10T21:54:24.346Z,14.30
2022-09-10T21:56:53.584Z,14.30
2022-09-10T21:59:26.749Z,14.30
2022-09-10T22:01:56.050Z,14.30
2022-09-10T22:04:25.501Z,14.20
2022-09-10T22:06:55.024Z,14.20
2022-09-10T22:09:24.515Z,14.10
2022-09-10T22:11:54.531Z,14.10
2022-09-10T22:14:25.062Z,14.10
2022-09-10T22:16:55.084Z,14.10
2022-09-10T22:19:26.179Z,14.10
2022-09-10T22:21:56.872Z,14.10
2022-09-10T22:24:26.397Z,14.00
2022-09-10T22:26:55.781Z,13.90
2022-09-10T22:29:25.230Z,13.90
2022-09-10T22:31:54.728Z,13.90
2022-09-10T22:34:24.196Z,14.00
2022-09-10T22:36:53.405Z,14.00
2022-09-10T22:39:23.193Z,13.90
2022-09-10T22:41:52.478Z,13.90
2022-09-10T22:44:23.191Z,13.90
2022-09-10T22:46:52.501Z,13.90
2022-09-10T22:49:21.992Z,13.80
2022-09-10T22:51:51.412Z,13.80
2022-09-10T22:54:20.689Z,13.80
2022-09-10T22:56:50.248Z,13.80
2022-09-10T22:59:19.579Z,13.80
2022-09-10T23:01:48.939Z,13.90
2022-09-10T23:04:18.159Z,13.90
2022-09-10T23:06:47.373Z,13.90
2022-09-10T23:09:18.328Z,13.90
2022-09-10T23:11:47.718Z,13.80
2022-09-10T23:14:20.792Z,13.80
2022-09-10T23:16:51.894Z,13.80
2022-09-10T23:19:24.557Z,13.70
2022-09-10T23:21:55.404Z,13.80
2022-09-10T23:24:26.644Z,13.80
2022-09-10T23:26:56.043Z,13.80
2022-09-10T23:29:25.375Z,13.80
2022-09-10T23:31:54.594Z,13.80
2022-09-10T23:34:24.037Z,13.80
2022-09-10T23:36:53.964Z,13.80
2022-09-10T23:39:24.897Z,13.80
2022-09-10T23:41:57.984Z,13.80
2022-09-10T23:44:27.804Z,13.80
2022-09-10T23:46:57.545Z,13.80
2022-09-10T23:49:26.937Z,13.80
2022-09-10T23:51:56.161Z,13.80
2022-09-10T23:54:25.454Z,13.80
2022-09-10T23:56:54.683Z,13.80
2022-09-10T23:59:23.874Z,13.80
